STW2615 USCC-LTAI
Flight info
| Callsign | STW2615 |
|---|---|
| Flight time | N/A |
| Altitude | 34000 |
| Route | GERSI2F GERSI T797 MGR L992 BODSI N37 AKT N154 ITAKA DCT LURIS/N0458F340 N37 BT/N0455F360 N37 SARPI UN37 TBN UW706 SIV UA285 SELVI/N0458F350 UA285 MUT/N0458F360 UR55 ADBEL |
| Aircraft | A21N/M-SDE2E3FGHIRWXY/LB1 |
Departure
| Time | 2026-04-26 11:45 |
|---|---|
| Airport | Kurchatov Chelyabinsk International Airport (USCC) |
Arrival
| Time | N/A |
|---|---|
| Airport | Antalya International Airport (LTAI) |
| Time | Latitude | Longitude | Altitude | Speed | Heading |
|---|---|---|---|---|---|
| 2026-04-26 11:07 | 55.29998 | 61.51129 | 744 ft | 0 kts | 193° |
| 2026-04-26 11:36 | 55.29996 | 61.51128 | 744 ft | 0 kts | 194° |
| 2026-04-26 11:36 | 55.29985 | 61.51124 | 744 ft | 0 kts | 194° |
| 2026-04-26 11:36 | 55.29972 | 61.51120 | 744 ft | 3 kts | 189° |
| 2026-04-26 11:36 | 55.29942 | 61.51147 | 744 ft | 8 kts | 131° |
| 2026-04-26 11:37 | 55.29921 | 61.51261 | 743 ft | 11 kts | 103° |
| 2026-04-26 11:37 | 55.29901 | 61.51411 | 742 ft | 14 kts | 103° |
| 2026-04-26 11:37 | 55.29910 | 61.51539 | 740 ft | 10 kts | 40° |
| 2026-04-26 11:37 | 55.29969 | 61.51597 | 740 ft | 9 kts | 50° |
| 2026-04-26 11:38 | 55.29971 | 61.51723 | 740 ft | 11 kts | 103° |
| 2026-04-26 11:38 | 55.29950 | 61.51876 | 739 ft | 14 kts | 104° |
| 2026-04-26 11:38 | 55.29923 | 61.52073 | 737 ft | 18 kts | 104° |
| 2026-04-26 11:38 | 55.29893 | 61.52298 | 737 ft | 19 kts | 104° |
| 2026-04-26 11:39 | 55.29896 | 61.52465 | 734 ft | 14 kts | 47° |
| 2026-04-26 11:39 | 55.29973 | 61.52593 | 732 ft | 16 kts | 42° |
| 2026-04-26 11:39 | 55.30046 | 61.52699 | 730 ft | 7 kts | 21° |
| 2026-04-26 11:39 | 55.30075 | 61.52714 | 729 ft | 4 kts | 14° |
| 2026-04-26 11:40 | 55.30104 | 61.52726 | 729 ft | 4 kts | 13° |
| 2026-04-26 11:40 | 55.30116 | 61.52730 | 729 ft | 0 kts | 12° |
| 2026-04-26 11:40 | 55.30117 | 61.52731 | 729 ft | 0 kts | 12° |
| 2026-04-26 11:42 | 55.30254 | 61.52685 | 730 ft | 0 kts | 284° |
| 2026-04-26 11:44 | 55.30305 | 61.52324 | 734 ft | 60 kts | 284° |
| 2026-04-26 11:44 | 55.30447 | 61.51293 | 744 ft | 112 kts | 284° |
| 2026-04-26 11:44 | 55.30669 | 61.49699 | 761 ft | 155 kts | 285° |
| 2026-04-26 11:44 | 55.30931 | 61.47768 | 1141 ft | 161 kts | 284° |
| 2026-04-26 11:45 | 55.31176 | 61.45942 | 1864 ft | 153 kts | 286° |
| 2026-04-26 11:45 | 55.31589 | 61.44266 | 2501 ft | 151 kts | 306° |
| 2026-04-26 11:45 | 55.32520 | 61.43397 | 2897 ft | 170 kts | 354° |
| 2026-04-26 11:45 | 55.33679 | 61.44053 | 3373 ft | 186 kts | 33° |
| 2026-04-26 11:46 | 55.34103 | 61.44783 | 3605 ft | 191 kts | 50° |
| 2026-04-26 11:46 | 55.34589 | 61.46869 | 4049 ft | 200 kts | 73° |
| 2026-04-26 11:46 | 55.35087 | 61.49216 | 4341 ft | 208 kts | 56° |
| 2026-04-26 11:46 | 55.35889 | 61.51408 | 4622 ft | 220 kts | 52° |
| 2026-04-26 11:47 | 55.36756 | 61.53686 | 4899 ft | 234 kts | 53° |
| 2026-04-26 11:47 | 55.37652 | 61.56204 | 5105 ft | 253 kts | 56° |
| 2026-04-26 11:47 | 55.38569 | 61.58955 | 5422 ft | 269 kts | 58° |
| 2026-04-26 11:47 | 55.39518 | 61.61917 | 5794 ft | 283 kts | 59° |
| 2026-04-26 11:48 | 55.40464 | 61.64941 | 6394 ft | 286 kts | 59° |
| 2026-04-26 11:48 | 55.41423 | 61.68020 | 7064 ft | 288 kts | 59° |
| 2026-04-26 11:48 | 55.42377 | 61.71084 | 7683 ft | 291 kts | 59° |
| 2026-04-26 11:48 | 55.43337 | 61.74247 | 8281 ft | 294 kts | 64° |
| 2026-04-26 11:49 | 55.43733 | 61.77734 | 8747 ft | 299 kts | 96° |
| 2026-04-26 11:49 | 55.43050 | 61.81147 | 9287 ft | 297 kts | 128° |
| 2026-04-26 11:49 | 55.41555 | 61.83508 | 9832 ft | 290 kts | 157° |
| 2026-04-26 11:49 | 55.39662 | 61.84449 | 10338 ft | 285 kts | 177° |
| 2026-04-26 11:50 | 55.37645 | 61.84880 | 10615 ft | 298 kts | 176° |
| 2026-04-26 11:50 | 55.35548 | 61.85354 | 10868 ft | 311 kts | 176° |
| 2026-04-26 11:50 | 55.33387 | 61.85879 | 11109 ft | 323 kts | 175° |
| 2026-04-26 11:50 | 55.31115 | 61.86459 | 11351 ft | 336 kts | 175° |
| 2026-04-26 11:51 | 55.28758 | 61.87075 | 11583 ft | 348 kts | 174° |
| 2026-04-26 11:51 | 55.26345 | 61.87713 | 11806 ft | 360 kts | 175° |
| 2026-04-26 11:51 | 55.23826 | 61.88383 | 12019 ft | 371 kts | 174° |
| 2026-04-26 11:51 | 55.21261 | 61.89065 | 12322 ft | 379 kts | 174° |
| 2026-04-26 11:52 | 55.18655 | 61.89761 | 12773 ft | 382 kts | 174° |
| 2026-04-26 11:52 | 55.16904 | 61.90228 | 13076 ft | 383 kts | 174° |
| 2026-04-26 11:52 | 55.13379 | 61.91164 | 13622 ft | 387 kts | 175° |
| 2026-04-26 11:52 | 55.10715 | 61.91869 | 14027 ft | 390 kts | 175° |
| 2026-04-26 11:53 | 55.08048 | 61.92460 | 14393 ft | 391 kts | 181° |
| 2026-04-26 11:53 | 55.05382 | 61.91778 | 14720 ft | 386 kts | 202° |
| 2026-04-26 11:53 | 55.03050 | 61.89577 | 15127 ft | 379 kts | 221° |
| 2026-04-26 11:54 | 55.00258 | 61.82502 | 15868 ft | 372 kts | 252° |
| 2026-04-26 11:54 | 54.99388 | 61.78232 | 16279 ft | 373 kts | 253° |
| 2026-04-26 11:54 | 54.98508 | 61.73948 | 16608 ft | 377 kts | 253° |
| 2026-04-26 11:54 | 54.97619 | 61.69648 | 16982 ft | 379 kts | 253° |
| 2026-04-26 11:55 | 54.96730 | 61.65378 | 17338 ft | 381 kts | 253° |
| 2026-04-26 11:55 | 54.95824 | 61.61042 | 17713 ft | 382 kts | 253° |
| 2026-04-26 11:55 | 54.94920 | 61.56731 | 18081 ft | 383 kts | 253° |
| 2026-04-26 11:55 | 54.93998 | 61.52346 | 18433 ft | 384 kts | 253° |
| 2026-04-26 11:56 | 54.93085 | 61.48011 | 18779 ft | 385 kts | 253° |
| 2026-04-26 11:56 | 54.92164 | 61.43645 | 19125 ft | 387 kts | 253° |
| 2026-04-26 11:56 | 54.91233 | 61.39248 | 19471 ft | 387 kts | 253° |
| 2026-04-26 11:56 | 54.90310 | 61.34895 | 19824 ft | 388 kts | 252° |
| 2026-04-26 11:57 | 54.89369 | 61.30476 | 20151 ft | 390 kts | 252° |
| 2026-04-26 11:57 | 54.88425 | 61.26050 | 20448 ft | 392 kts | 252° |
| 2026-04-26 11:57 | 54.87485 | 61.21647 | 20760 ft | 393 kts | 252° |
| 2026-04-26 11:57 | 54.86530 | 61.17189 | 21066 ft | 394 kts | 252° |
| 2026-04-26 11:58 | 54.85584 | 61.12783 | 21365 ft | 396 kts | 252° |
| 2026-04-26 11:58 | 54.84616 | 61.08281 | 21651 ft | 397 kts | 252° |
| 2026-04-26 11:58 | 54.83643 | 61.03761 | 21931 ft | 399 kts | 252° |
| 2026-04-26 11:58 | 54.82684 | 60.99322 | 22216 ft | 400 kts | 252° |
| 2026-04-26 11:59 | 54.81699 | 60.94772 | 22487 ft | 401 kts | 252° |
| 2026-04-26 11:59 | 54.80716 | 60.90234 | 22768 ft | 403 kts | 252° |
| 2026-04-26 11:59 | 54.79736 | 60.85728 | 23030 ft | 404 kts | 252° |
| 2026-04-26 11:59 | 54.78745 | 60.81179 | 23284 ft | 405 kts | 252° |
| 2026-04-26 12:00 | 54.77751 | 60.76627 | 23523 ft | 407 kts | 252° |
| 2026-04-26 12:00 | 54.76751 | 60.72058 | 23764 ft | 408 kts | 252° |
| 2026-04-26 12:00 | 54.75740 | 60.67455 | 24001 ft | 409 kts | 252° |
| 2026-04-26 12:00 | 54.74686 | 60.62883 | 24212 ft | 413 kts | 249° |
| 2026-04-26 12:01 | 54.73291 | 60.58539 | 24430 ft | 418 kts | 241° |
| 2026-04-26 12:01 | 54.71530 | 60.54522 | 24645 ft | 423 kts | 234° |
| 2026-04-26 12:01 | 54.69472 | 60.50919 | 24843 ft | 428 kts | 229° |
| 2026-04-26 12:01 | 54.67277 | 60.47371 | 25049 ft | 429 kts | 228° |
| 2026-04-26 12:02 | 54.65109 | 60.43906 | 25249 ft | 430 kts | 228° |
| 2026-04-26 12:02 | 54.63629 | 60.41548 | 25417 ft | 430 kts | 228° |
| 2026-04-26 12:02 | 54.60731 | 60.36938 | 25819 ft | 428 kts | 228° |
| 2026-04-26 12:02 | 54.58533 | 60.33443 | 26113 ft | 427 kts | 227° |
| 2026-04-26 12:03 | 54.56378 | 60.30019 | 26376 ft | 427 kts | 227° |
| 2026-04-26 12:03 | 54.54198 | 60.26560 | 26646 ft | 426 kts | 227° |
| 2026-04-26 12:03 | 54.52029 | 60.23121 | 26918 ft | 426 kts | 227° |
| 2026-04-26 12:03 | 54.49843 | 60.19659 | 27167 ft | 425 kts | 227° |
| 2026-04-26 12:04 | 54.47695 | 60.16261 | 27411 ft | 425 kts | 227° |
| 2026-04-26 12:04 | 54.45525 | 60.12833 | 27647 ft | 425 kts | 227° |
| 2026-04-26 12:04 | 54.43356 | 60.09415 | 27896 ft | 425 kts | 227° |
| 2026-04-26 12:04 | 54.41154 | 60.05950 | 28150 ft | 424 kts | 227° |
| 2026-04-26 12:05 | 54.38992 | 60.02603 | 28398 ft | 425 kts | 226° |
| 2026-04-26 12:05 | 54.36684 | 59.99355 | 28624 ft | 427 kts | 223° |
| 2026-04-26 12:05 | 54.34348 | 59.96279 | 28853 ft | 427 kts | 223° |
| 2026-04-26 12:05 | 54.32024 | 59.93196 | 29065 ft | 427 kts | 223° |
| 2026-04-26 12:06 | 54.29676 | 59.90080 | 29288 ft | 427 kts | 223° |
| 2026-04-26 12:06 | 54.27322 | 59.86963 | 29516 ft | 427 kts | 223° |
| 2026-04-26 12:06 | 54.25000 | 59.83895 | 29724 ft | 427 kts | 223° |
| 2026-04-26 12:06 | 54.22632 | 59.80779 | 29926 ft | 427 kts | 223° |
| 2026-04-26 12:07 | 54.20302 | 59.77715 | 30100 ft | 428 kts | 223° |
| 2026-04-26 12:07 | 54.17930 | 59.74603 | 30284 ft | 428 kts | 223° |
| 2026-04-26 12:07 | 54.15592 | 59.71546 | 30442 ft | 429 kts | 223° |
| 2026-04-26 12:07 | 54.13240 | 59.68474 | 30598 ft | 430 kts | 223° |
| 2026-04-26 12:08 | 54.10847 | 59.65355 | 30771 ft | 430 kts | 223° |
| 2026-04-26 12:08 | 54.08483 | 59.62275 | 30926 ft | 430 kts | 223° |
| 2026-04-26 12:08 | 54.06129 | 59.59211 | 31063 ft | 430 kts | 223° |
| 2026-04-26 12:08 | 54.03736 | 59.56101 | 31199 ft | 431 kts | 223° |
| 2026-04-26 12:09 | 54.01384 | 59.53048 | 31343 ft | 431 kts | 223° |
| 2026-04-26 12:09 | 53.99010 | 59.49968 | 31501 ft | 430 kts | 223° |
| 2026-04-26 12:09 | 53.96654 | 59.46917 | 31657 ft | 429 kts | 223° |
| 2026-04-26 12:09 | 53.94277 | 59.43847 | 31812 ft | 429 kts | 223° |
| 2026-04-26 12:10 | 53.91922 | 59.40810 | 31945 ft | 429 kts | 223° |
| 2026-04-26 12:10 | 53.89548 | 59.37752 | 32080 ft | 429 kts | 223° |
| 2026-04-26 12:10 | 53.87180 | 59.34721 | 32200 ft | 429 kts | 222° |
| 2026-04-26 12:10 | 53.84802 | 59.31686 | 32318 ft | 430 kts | 222° |
| 2026-04-26 12:11 | 53.82393 | 59.28616 | 32416 ft | 431 kts | 222° |
| 2026-04-26 12:11 | 53.80041 | 59.25624 | 32534 ft | 431 kts | 222° |
| 2026-04-26 12:11 | 53.77633 | 59.22561 | 32642 ft | 431 kts | 222° |
| 2026-04-26 12:11 | 53.75234 | 59.19514 | 32757 ft | 432 kts | 222° |
| 2026-04-26 12:12 | 53.72860 | 59.16505 | 32871 ft | 432 kts | 222° |
| 2026-04-26 12:12 | 53.70446 | 59.13445 | 32975 ft | 432 kts | 221° |
| 2026-04-26 12:12 | 53.68058 | 59.10424 | 33089 ft | 433 kts | 221° |
| 2026-04-26 12:13 | 53.63250 | 59.04355 | 33309 ft | 433 kts | 221° |
| 2026-04-26 12:13 | 53.60857 | 59.01340 | 33419 ft | 433 kts | 221° |
| 2026-04-26 12:13 | 53.58452 | 58.98316 | 33515 ft | 434 kts | 221° |
| 2026-04-26 12:14 | 53.53621 | 58.92251 | 33727 ft | 435 kts | 221° |
| 2026-04-26 12:14 | 53.51223 | 58.89249 | 33839 ft | 434 kts | 221° |
| 2026-04-26 12:14 | 53.48775 | 58.86193 | 33937 ft | 435 kts | 221° |
| 2026-04-26 12:15 | 53.43785 | 58.80442 | 34005 ft | 440 kts | 216° |
| 2026-04-26 12:15 | 53.38432 | 58.75605 | 34006 ft | 443 kts | 210° |
| 2026-04-26 12:16 | 53.32718 | 58.71726 | 34008 ft | 446 kts | 204° |
| 2026-04-26 12:16 | 53.26799 | 58.68560 | 34007 ft | 447 kts | 203° |
| 2026-04-26 12:17 | 53.20896 | 58.65400 | 34017 ft | 448 kts | 203° |
| 2026-04-26 12:17 | 53.14951 | 58.62228 | 34013 ft | 448 kts | 203° |
| 2026-04-26 12:18 | 53.09033 | 58.59086 | 34026 ft | 448 kts | 203° |
| 2026-04-26 12:18 | 53.03104 | 58.55950 | 34026 ft | 448 kts | 203° |
| 2026-04-26 12:19 | 52.97217 | 58.52846 | 34031 ft | 447 kts | 203° |
| 2026-04-26 12:19 | 52.91306 | 58.49736 | 34014 ft | 448 kts | 203° |
| 2026-04-26 12:20 | 52.85397 | 58.46636 | 34015 ft | 448 kts | 203° |
| 2026-04-26 12:20 | 52.79449 | 58.43524 | 34023 ft | 448 kts | 203° |
| 2026-04-26 12:21 | 52.73529 | 58.40435 | 34016 ft | 448 kts | 203° |
| 2026-04-26 12:21 | 52.67619 | 58.37358 | 34016 ft | 448 kts | 203° |
| 2026-04-26 12:22 | 52.61684 | 58.34279 | 34021 ft | 448 kts | 202° |
| 2026-04-26 12:22 | 52.55727 | 58.31212 | 34030 ft | 449 kts | 201° |
| 2026-04-26 12:23 | 52.49789 | 58.28229 | 34034 ft | 449 kts | 201° |
| 2026-04-26 12:23 | 52.43799 | 58.25225 | 34033 ft | 450 kts | 201° |
| 2026-04-26 12:24 | 52.37871 | 58.22255 | 34042 ft | 450 kts | 201° |
| 2026-04-26 12:24 | 52.31882 | 58.19262 | 34055 ft | 449 kts | 201° |
| 2026-04-26 12:25 | 52.22927 | 58.14800 | 34063 ft | 449 kts | 201° |
| 2026-04-26 12:25 | 52.16993 | 58.11852 | 34054 ft | 450 kts | 201° |
| 2026-04-26 12:26 | 52.11024 | 58.08892 | 34060 ft | 450 kts | 201° |
| 2026-04-26 12:26 | 52.05041 | 58.05933 | 34063 ft | 451 kts | 201° |
| 2026-04-26 12:27 | 51.99066 | 58.02993 | 34062 ft | 450 kts | 201° |
| 2026-04-26 12:27 | 51.93082 | 58.00063 | 34052 ft | 450 kts | 201° |
| 2026-04-26 12:28 | 51.87093 | 57.97134 | 34064 ft | 450 kts | 201° |
| 2026-04-26 12:28 | 51.81148 | 57.94231 | 34079 ft | 450 kts | 201° |
| 2026-04-26 12:29 | 51.75150 | 57.91310 | 34082 ft | 450 kts | 201° |
| 2026-04-26 12:30 | 51.66219 | 57.86972 | 34071 ft | 450 kts | 201° |
| 2026-04-26 12:30 | 51.60239 | 57.84080 | 34082 ft | 449 kts | 201° |
| 2026-04-26 12:31 | 51.51270 | 57.79754 | 34074 ft | 449 kts | 201° |
| 2026-04-26 12:31 | 51.45319 | 57.76893 | 34079 ft | 449 kts | 201° |
| 2026-04-26 12:32 | 51.39349 | 57.74028 | 34087 ft | 449 kts | 201° |
| 2026-04-26 12:33 | 51.30409 | 57.69760 | 34099 ft | 450 kts | 201° |
| 2026-04-26 12:33 | 51.24426 | 57.66923 | 34097 ft | 449 kts | 201° |
| 2026-04-26 12:34 | 51.18499 | 57.64115 | 34110 ft | 449 kts | 201° |
| 2026-04-26 12:34 | 51.13493 | 57.61747 | 34107 ft | 449 kts | 201° |
| 2026-04-26 12:35 | 51.06551 | 57.58470 | 34106 ft | 449 kts | 201° |
| 2026-04-26 12:35 | 51.00565 | 57.55650 | 34115 ft | 449 kts | 201° |
| 2026-04-26 12:36 | 50.95598 | 57.53318 | 34132 ft | 449 kts | 201° |
| 2026-04-26 12:36 | 50.88635 | 57.50059 | 34126 ft | 448 kts | 202° |
| 2026-04-26 12:37 | 50.82696 | 57.47107 | 34131 ft | 447 kts | 203° |
| 2026-04-26 12:37 | 50.76808 | 57.44031 | 34117 ft | 448 kts | 203° |
| 2026-04-26 12:38 | 50.70903 | 57.40969 | 34127 ft | 448 kts | 203° |
| 2026-04-26 12:38 | 50.65004 | 57.37928 | 34127 ft | 447 kts | 203° |
| 2026-04-26 12:39 | 50.59129 | 57.34914 | 34127 ft | 447 kts | 202° |
| 2026-04-26 12:39 | 50.53203 | 57.31879 | 34136 ft | 448 kts | 202° |
| 2026-04-26 12:40 | 50.47300 | 57.28866 | 34146 ft | 448 kts | 203° |
| 2026-04-26 12:40 | 50.41380 | 57.25852 | 34137 ft | 448 kts | 203° |
| 2026-04-26 12:41 | 50.35500 | 57.22863 | 34136 ft | 447 kts | 203° |
| 2026-04-26 12:41 | 50.29610 | 57.19878 | 34141 ft | 447 kts | 203° |
| 2026-04-26 12:42 | 50.23739 | 57.16693 | 34150 ft | 445 kts | 206° |
| 2026-04-26 12:42 | 50.17960 | 57.13312 | 34145 ft | 446 kts | 205° |
| 2026-04-26 12:43 | 50.12177 | 57.09945 | 34143 ft | 446 kts | 206° |
| 2026-04-26 12:43 | 50.06349 | 57.06552 | 34150 ft | 446 kts | 206° |
| 2026-04-26 12:44 | 50.00546 | 57.03181 | 34142 ft | 446 kts | 206° |
| 2026-04-26 12:44 | 49.94759 | 56.99825 | 34155 ft | 444 kts | 206° |
| 2026-04-26 12:45 | 49.88995 | 56.96493 | 34160 ft | 444 kts | 206° |
| 2026-04-26 12:45 | 49.83218 | 56.93158 | 34155 ft | 445 kts | 206° |
| 2026-04-26 12:46 | 49.77441 | 56.89832 | 34162 ft | 444 kts | 206° |
| 2026-04-26 12:46 | 49.71635 | 56.86495 | 34157 ft | 445 kts | 206° |
| 2026-04-26 12:47 | 49.65882 | 56.83203 | 34163 ft | 443 kts | 206° |
| 2026-04-26 12:47 | 49.60099 | 56.79892 | 34168 ft | 442 kts | 206° |
| 2026-04-26 12:48 | 49.54357 | 56.76604 | 34168 ft | 443 kts | 206° |
| 2026-04-26 12:48 | 49.48595 | 56.73312 | 34172 ft | 443 kts | 206° |
| 2026-04-26 12:49 | 49.42844 | 56.70032 | 34167 ft | 442 kts | 206° |
| 2026-04-26 12:49 | 49.37090 | 56.66762 | 34176 ft | 441 kts | 206° |
| 2026-04-26 12:50 | 49.31335 | 56.63497 | 34175 ft | 440 kts | 207° |
| 2026-04-26 12:50 | 49.25609 | 56.60257 | 34175 ft | 440 kts | 207° |
| 2026-04-26 12:51 | 49.19894 | 56.57029 | 34177 ft | 440 kts | 207° |
| 2026-04-26 12:51 | 49.14136 | 56.53786 | 34177 ft | 441 kts | 207° |
| 2026-04-26 12:52 | 49.08411 | 56.50573 | 34183 ft | 440 kts | 207° |
| 2026-04-26 12:52 | 49.02723 | 56.47384 | 34179 ft | 439 kts | 207° |
| 2026-04-26 12:53 | 48.96997 | 56.44181 | 34179 ft | 439 kts | 207° |
| 2026-04-26 12:53 | 48.91285 | 56.40997 | 34184 ft | 438 kts | 207° |
| 2026-04-26 12:54 | 48.85566 | 56.37814 | 34158 ft | 437 kts | 207° |
| 2026-04-26 12:54 | 48.79857 | 56.34645 | 34187 ft | 438 kts | 206° |
| 2026-04-26 12:55 | 48.74172 | 56.31497 | 34192 ft | 438 kts | 206° |
| 2026-04-26 12:55 | 48.68438 | 56.28329 | 34190 ft | 439 kts | 206° |
| 2026-04-26 12:56 | 48.62745 | 56.25189 | 34196 ft | 437 kts | 206° |
| 2026-04-26 12:56 | 48.57069 | 56.22069 | 34194 ft | 436 kts | 206° |
| 2026-04-26 12:57 | 48.51350 | 56.18933 | 34197 ft | 436 kts | 206° |
| 2026-04-26 12:57 | 48.45661 | 56.15826 | 34191 ft | 437 kts | 206° |
| 2026-04-26 12:58 | 48.37141 | 56.11183 | 34198 ft | 437 kts | 206° |
| 2026-04-26 12:58 | 48.31442 | 56.08085 | 34191 ft | 436 kts | 206° |
| 2026-04-26 12:59 | 48.25751 | 56.04996 | 34198 ft | 436 kts | 206° |
| 2026-04-26 12:59 | 48.20058 | 56.01913 | 34205 ft | 436 kts | 206° |
| 2026-04-26 13:00 | 48.14388 | 55.98846 | 34199 ft | 435 kts | 206° |
| 2026-04-26 13:00 | 48.08712 | 55.95785 | 34198 ft | 434 kts | 206° |
| 2026-04-26 13:01 | 48.03073 | 55.92753 | 34196 ft | 433 kts | 206° |
| 2026-04-26 13:01 | 47.97427 | 55.89733 | 34203 ft | 433 kts | 206° |
| 2026-04-26 13:02 | 47.91729 | 55.86689 | 34218 ft | 434 kts | 206° |
| 2026-04-26 13:02 | 47.86076 | 55.83673 | 34213 ft | 433 kts | 206° |
| 2026-04-26 13:03 | 47.80419 | 55.80660 | 34219 ft | 434 kts | 206° |
| 2026-04-26 13:03 | 47.74780 | 55.77665 | 34207 ft | 433 kts | 206° |
| 2026-04-26 13:04 | 47.69101 | 55.74654 | 34213 ft | 432 kts | 206° |
| 2026-04-26 13:04 | 47.63459 | 55.71671 | 34216 ft | 432 kts | 206° |
| 2026-04-26 13:05 | 47.57833 | 55.68698 | 34209 ft | 432 kts | 206° |
| 2026-04-26 13:05 | 47.52191 | 55.65726 | 34229 ft | 431 kts | 206° |
| 2026-04-26 13:06 | 47.46540 | 55.62763 | 34219 ft | 431 kts | 206° |
| 2026-04-26 13:06 | 47.40928 | 55.59830 | 34213 ft | 429 kts | 206° |
| 2026-04-26 13:07 | 47.35310 | 55.56898 | 34204 ft | 430 kts | 206° |
| 2026-04-26 13:07 | 47.29716 | 55.53981 | 34216 ft | 430 kts | 206° |
| 2026-04-26 13:08 | 47.24085 | 55.51052 | 34220 ft | 429 kts | 206° |
| 2026-04-26 13:08 | 47.18505 | 55.48154 | 34217 ft | 428 kts | 206° |
| 2026-04-26 13:09 | 47.12891 | 55.45246 | 34214 ft | 429 kts | 206° |
| 2026-04-26 13:09 | 47.07288 | 55.42348 | 34205 ft | 428 kts | 206° |
| 2026-04-26 13:10 | 47.01684 | 55.39460 | 34216 ft | 427 kts | 206° |
| 2026-04-26 13:10 | 46.96115 | 55.36592 | 34206 ft | 426 kts | 206° |
| 2026-04-26 13:11 | 46.90512 | 55.33712 | 34210 ft | 427 kts | 205° |
| 2026-04-26 13:11 | 46.84922 | 55.30844 | 34213 ft | 428 kts | 205° |
| 2026-04-26 13:12 | 46.79338 | 55.27992 | 34208 ft | 428 kts | 205° |
| 2026-04-26 13:12 | 46.73725 | 55.25138 | 34205 ft | 428 kts | 205° |
| 2026-04-26 13:13 | 46.68106 | 55.22285 | 34210 ft | 428 kts | 205° |
| 2026-04-26 13:13 | 46.62515 | 55.19450 | 34215 ft | 427 kts | 205° |
| 2026-04-26 13:14 | 46.56916 | 55.16614 | 34213 ft | 427 kts | 205° |
| 2026-04-26 13:14 | 46.51308 | 55.13781 | 34217 ft | 427 kts | 205° |
| 2026-04-26 13:15 | 46.45720 | 55.10963 | 34218 ft | 428 kts | 205° |
| 2026-04-26 13:15 | 46.41042 | 55.08609 | 34217 ft | 428 kts | 205° |
| 2026-04-26 13:16 | 46.34491 | 55.05319 | 34221 ft | 428 kts | 205° |
| 2026-04-26 13:16 | 46.28889 | 55.02512 | 34220 ft | 427 kts | 205° |
| 2026-04-26 13:17 | 46.20459 | 54.98301 | 34209 ft | 427 kts | 205° |
| 2026-04-26 13:18 | 46.12059 | 54.94116 | 34206 ft | 428 kts | 205° |
| 2026-04-26 13:19 | 46.03631 | 54.89930 | 34183 ft | 429 kts | 205° |
| 2026-04-26 13:19 | 45.98010 | 54.87146 | 34175 ft | 429 kts | 205° |
| 2026-04-26 13:20 | 45.92378 | 54.84361 | 34202 ft | 429 kts | 205° |
| 2026-04-26 13:20 | 45.86760 | 54.81588 | 34204 ft | 428 kts | 205° |
| 2026-04-26 13:21 | 45.81136 | 54.78823 | 34206 ft | 428 kts | 205° |
| 2026-04-26 13:21 | 45.75509 | 54.76066 | 34206 ft | 428 kts | 205° |
| 2026-04-26 13:22 | 45.69889 | 54.73315 | 34208 ft | 429 kts | 205° |
| 2026-04-26 13:22 | 45.64254 | 54.70559 | 34205 ft | 429 kts | 205° |
| 2026-04-26 13:23 | 45.58587 | 54.67793 | 34211 ft | 429 kts | 205° |
| 2026-04-26 13:23 | 45.52965 | 54.65057 | 34209 ft | 429 kts | 205° |
| 2026-04-26 13:24 | 45.47333 | 54.62329 | 34209 ft | 429 kts | 205° |
| 2026-04-26 13:24 | 45.41681 | 54.59593 | 34214 ft | 430 kts | 205° |
| 2026-04-26 13:25 | 45.36018 | 54.56853 | 34219 ft | 431 kts | 205° |
| 2026-04-26 13:25 | 45.30357 | 54.54120 | 34218 ft | 431 kts | 205° |
| 2026-04-26 13:26 | 45.24689 | 54.51389 | 34217 ft | 431 kts | 205° |
| 2026-04-26 13:26 | 45.19051 | 54.48677 | 34219 ft | 431 kts | 205° |
| 2026-04-26 13:27 | 45.13374 | 54.45953 | 34214 ft | 431 kts | 204° |
| 2026-04-26 13:27 | 45.07718 | 54.43241 | 34218 ft | 432 kts | 204° |
| 2026-04-26 13:28 | 45.02008 | 54.40509 | 34218 ft | 432 kts | 204° |
| 2026-04-26 13:28 | 44.96326 | 54.37800 | 34219 ft | 433 kts | 204° |
| 2026-04-26 13:29 | 44.90768 | 54.34753 | 34206 ft | 427 kts | 212° |
| 2026-04-26 13:29 | 44.86011 | 54.29995 | 34205 ft | 417 kts | 227° |
| 2026-04-26 13:30 | 44.82360 | 54.23775 | 34195 ft | 412 kts | 240° |
| 2026-04-26 13:30 | 44.79911 | 54.16602 | 34199 ft | 409 kts | 250° |
| 2026-04-26 13:31 | 44.77819 | 54.09185 | 34201 ft | 409 kts | 250° |
| 2026-04-26 13:31 | 44.75724 | 54.01745 | 34202 ft | 409 kts | 250° |
| 2026-04-26 13:32 | 44.73738 | 53.94719 | 34203 ft | 409 kts | 250° |
| 2026-04-26 13:32 | 44.71652 | 53.87360 | 34194 ft | 409 kts | 250° |
| 2026-04-26 13:33 | 44.69541 | 53.79942 | 34193 ft | 409 kts | 250° |
| 2026-04-26 13:33 | 44.67430 | 53.72549 | 34195 ft | 409 kts | 250° |
| 2026-04-26 13:34 | 44.65310 | 53.65144 | 34193 ft | 410 kts | 250° |
| 2026-04-26 13:34 | 44.63193 | 53.57777 | 34199 ft | 410 kts | 250° |
| 2026-04-26 13:35 | 44.61057 | 53.50360 | 34201 ft | 409 kts | 250° |
| 2026-04-26 13:35 | 44.58937 | 53.43018 | 34193 ft | 409 kts | 250° |
| 2026-04-26 13:36 | 44.56807 | 53.35668 | 34195 ft | 409 kts | 250° |
| 2026-04-26 13:36 | 44.54669 | 53.28315 | 34195 ft | 408 kts | 250° |
| 2026-04-26 13:37 | 44.52529 | 53.20970 | 34191 ft | 408 kts | 250° |
| 2026-04-26 13:37 | 44.50380 | 53.13613 | 34195 ft | 408 kts | 250° |
| 2026-04-26 13:38 | 44.48238 | 53.06306 | 34190 ft | 408 kts | 250° |
| 2026-04-26 13:38 | 44.46076 | 52.98949 | 34186 ft | 408 kts | 250° |
| 2026-04-26 13:39 | 44.43918 | 52.91634 | 34187 ft | 408 kts | 250° |
| 2026-04-26 13:39 | 44.41753 | 52.84314 | 34179 ft | 409 kts | 250° |
| 2026-04-26 13:40 | 44.39593 | 52.77028 | 34182 ft | 409 kts | 250° |
| 2026-04-26 13:40 | 44.37414 | 52.69705 | 34174 ft | 409 kts | 250° |
| 2026-04-26 13:41 | 44.35224 | 52.62363 | 34177 ft | 409 kts | 250° |
| 2026-04-26 13:41 | 44.33044 | 52.55075 | 34171 ft | 408 kts | 250° |
| 2026-04-26 13:42 | 44.30864 | 52.47806 | 34171 ft | 408 kts | 250° |
| 2026-04-26 13:42 | 44.28675 | 52.40528 | 34170 ft | 408 kts | 250° |
| 2026-04-26 13:43 | 44.26471 | 52.33226 | 34174 ft | 408 kts | 249° |
| 2026-04-26 13:43 | 44.24275 | 52.25972 | 34168 ft | 408 kts | 249° |
| 2026-04-26 13:44 | 44.22055 | 52.18657 | 34166 ft | 409 kts | 249° |
| 2026-04-26 13:44 | 44.19852 | 52.11416 | 34164 ft | 409 kts | 249° |
| 2026-04-26 13:45 | 44.17631 | 52.04133 | 34168 ft | 409 kts | 249° |
| 2026-04-26 13:45 | 44.15416 | 51.96893 | 34158 ft | 409 kts | 249° |
| 2026-04-26 13:46 | 44.13557 | 51.90831 | 34164 ft | 408 kts | 249° |
| 2026-04-26 13:46 | 44.10961 | 51.82398 | 34159 ft | 408 kts | 249° |
| 2026-04-26 13:47 | 44.08725 | 51.75154 | 34157 ft | 408 kts | 249° |
| 2026-04-26 13:47 | 44.06479 | 51.67899 | 34159 ft | 409 kts | 249° |
| 2026-04-26 13:48 | 44.04234 | 51.60660 | 34159 ft | 409 kts | 249° |
| 2026-04-26 13:48 | 44.01992 | 51.53451 | 34157 ft | 408 kts | 249° |
| 2026-04-26 13:49 | 43.99736 | 51.46220 | 34161 ft | 408 kts | 249° |
| 2026-04-26 13:49 | 43.97478 | 51.39000 | 34158 ft | 408 kts | 249° |
| 2026-04-26 13:50 | 43.95218 | 51.31791 | 34157 ft | 408 kts | 248° |
| 2026-04-26 13:50 | 43.92958 | 51.24603 | 34150 ft | 408 kts | 248° |
| 2026-04-26 13:51 | 43.90714 | 51.17420 | 34146 ft | 407 kts | 250° |
| 2026-04-26 13:51 | 43.88918 | 51.10032 | 34144 ft | 406 kts | 256° |
| 2026-04-26 13:52 | 43.87773 | 51.02377 | 34143 ft | 405 kts | 262° |
| 2026-04-26 13:52 | 43.87309 | 50.94654 | 34143 ft | 405 kts | 268° |
| 2026-04-26 13:53 | 43.87321 | 50.86840 | 34142 ft | 405 kts | 270° |
| 2026-04-26 13:53 | 43.87361 | 50.79071 | 34141 ft | 405 kts | 270° |
| 2026-04-26 13:54 | 43.87400 | 50.71291 | 34140 ft | 405 kts | 270° |
| 2026-04-26 13:54 | 43.87432 | 50.63559 | 34138 ft | 405 kts | 270° |
| 2026-04-26 13:55 | 43.87468 | 50.53131 | 34139 ft | 405 kts | 270° |
| 2026-04-26 13:56 | 43.87501 | 50.40200 | 34135 ft | 405 kts | 270° |
| 2026-04-26 13:56 | 43.87513 | 50.32426 | 34139 ft | 405 kts | 269° |
| 2026-04-26 13:57 | 43.87523 | 50.24636 | 34139 ft | 405 kts | 269° |
| 2026-04-26 13:57 | 43.87526 | 50.16866 | 34140 ft | 405 kts | 269° |
| 2026-04-26 13:58 | 43.87523 | 50.09118 | 34134 ft | 405 kts | 269° |
| 2026-04-26 13:58 | 43.87514 | 50.01815 | 34138 ft | 406 kts | 269° |
| 2026-04-26 13:59 | 43.87500 | 49.94010 | 34140 ft | 405 kts | 269° |
| 2026-04-26 13:59 | 43.87481 | 49.86250 | 34140 ft | 406 kts | 269° |
| 2026-04-26 14:00 | 43.87433 | 49.70630 | 34136 ft | 406 kts | 269° |
| 2026-04-26 14:01 | 43.87390 | 49.62864 | 34135 ft | 406 kts | 268° |
| 2026-04-26 14:01 | 43.86867 | 49.55130 | 34132 ft | 405 kts | 261° |
| 2026-04-26 14:02 | 43.85601 | 49.47494 | 34129 ft | 406 kts | 255° |
| 2026-04-26 14:02 | 43.83633 | 49.40199 | 34124 ft | 408 kts | 248° |
| 2026-04-26 14:03 | 43.81130 | 49.33186 | 34125 ft | 408 kts | 245° |
| 2026-04-26 14:03 | 43.78565 | 49.26163 | 34121 ft | 408 kts | 245° |
| 2026-04-26 14:04 | 43.76008 | 49.19186 | 34115 ft | 408 kts | 245° |
| 2026-04-26 14:04 | 43.73460 | 49.12249 | 34110 ft | 407 kts | 245° |
| 2026-04-26 14:05 | 43.70892 | 49.05286 | 34113 ft | 407 kts | 245° |
| 2026-04-26 14:05 | 43.68761 | 48.99519 | 34107 ft | 407 kts | 245° |
| 2026-04-26 14:06 | 43.65752 | 48.91398 | 34105 ft | 407 kts | 245° |
| 2026-04-26 14:06 | 43.63179 | 48.84474 | 34100 ft | 407 kts | 245° |
| 2026-04-26 14:07 | 43.60605 | 48.77560 | 34097 ft | 407 kts | 245° |
| 2026-04-26 14:07 | 43.58019 | 48.70630 | 34101 ft | 408 kts | 245° |
| 2026-04-26 14:08 | 43.55425 | 48.63701 | 34086 ft | 407 kts | 245° |
| 2026-04-26 14:08 | 43.52831 | 48.56786 | 34081 ft | 407 kts | 245° |
| 2026-04-26 14:09 | 43.50246 | 48.49914 | 34091 ft | 407 kts | 245° |
| 2026-04-26 14:09 | 43.47650 | 48.43032 | 34080 ft | 406 kts | 245° |
| 2026-04-26 14:10 | 43.45059 | 48.36175 | 34085 ft | 406 kts | 245° |
| 2026-04-26 14:10 | 43.42448 | 48.29287 | 34079 ft | 406 kts | 244° |
| 2026-04-26 14:11 | 43.38535 | 48.18988 | 34079 ft | 406 kts | 244° |
| 2026-04-26 14:11 | 43.35932 | 48.12157 | 34070 ft | 405 kts | 244° |
| 2026-04-26 14:12 | 43.33330 | 48.05349 | 34073 ft | 405 kts | 244° |
| 2026-04-26 14:12 | 43.30718 | 47.98527 | 34063 ft | 404 kts | 244° |
| 2026-04-26 14:13 | 43.26785 | 47.88294 | 34058 ft | 404 kts | 244° |
| 2026-04-26 14:14 | 43.24183 | 47.81541 | 34052 ft | 404 kts | 244° |
| 2026-04-26 14:14 | 43.21556 | 47.74738 | 34052 ft | 404 kts | 244° |
| 2026-04-26 14:15 | 43.18944 | 47.67996 | 34042 ft | 403 kts | 245° |
| 2026-04-26 14:15 | 43.16322 | 47.61234 | 34036 ft | 402 kts | 244° |
| 2026-04-26 14:16 | 43.13694 | 47.54480 | 34037 ft | 402 kts | 244° |
| 2026-04-26 14:16 | 43.11509 | 47.48869 | 34033 ft | 401 kts | 244° |
| 2026-04-26 14:17 | 43.08455 | 47.41054 | 34030 ft | 401 kts | 245° |
| 2026-04-26 14:17 | 43.05832 | 47.34359 | 34024 ft | 402 kts | 244° |
| 2026-04-26 14:18 | 43.03200 | 47.27655 | 34019 ft | 402 kts | 244° |
| 2026-04-26 14:18 | 43.00559 | 47.20940 | 34010 ft | 401 kts | 244° |
| 2026-04-26 14:19 | 42.97933 | 47.14283 | 34008 ft | 400 kts | 244° |
| 2026-04-26 14:19 | 42.95284 | 47.07586 | 33999 ft | 400 kts | 244° |
| 2026-04-26 14:20 | 42.92654 | 47.00951 | 34006 ft | 400 kts | 244° |
| 2026-04-26 14:20 | 42.90012 | 46.94300 | 34005 ft | 400 kts | 244° |
| 2026-04-26 14:21 | 42.87363 | 46.87648 | 34021 ft | 401 kts | 244° |
| 2026-04-26 14:21 | 42.84700 | 46.80976 | 34043 ft | 401 kts | 244° |
| 2026-04-26 14:22 | 42.82030 | 46.74302 | 34049 ft | 401 kts | 244° |
| 2026-04-26 14:22 | 42.79373 | 46.67670 | 34054 ft | 401 kts | 244° |
| 2026-04-26 14:23 | 42.76704 | 46.61029 | 34051 ft | 401 kts | 244° |
| 2026-04-26 14:23 | 42.74023 | 46.54376 | 34052 ft | 401 kts | 243° |
| 2026-04-26 14:24 | 42.71441 | 46.47979 | 34055 ft | 402 kts | 244° |
| 2026-04-26 14:24 | 42.68756 | 46.41348 | 34081 ft | 402 kts | 244° |
| 2026-04-26 14:25 | 42.66072 | 46.34725 | 34098 ft | 402 kts | 243° |
| 2026-04-26 14:25 | 42.63369 | 46.28077 | 34114 ft | 401 kts | 243° |
| 2026-04-26 14:26 | 42.60678 | 46.21466 | 34132 ft | 402 kts | 243° |
| 2026-04-26 14:26 | 42.57964 | 46.14820 | 34131 ft | 403 kts | 243° |
| 2026-04-26 14:27 | 42.55590 | 46.09011 | 34117 ft | 403 kts | 243° |
| 2026-04-26 14:27 | 42.52885 | 46.02409 | 34102 ft | 403 kts | 243° |
| 2026-04-26 14:28 | 42.50158 | 45.95771 | 34099 ft | 404 kts | 243° |
| 2026-04-26 14:28 | 42.47429 | 45.89138 | 34103 ft | 403 kts | 243° |
| 2026-04-26 14:29 | 42.44834 | 45.82436 | 34112 ft | 403 kts | 246° |
| 2026-04-26 14:29 | 42.42716 | 45.75443 | 34122 ft | 402 kts | 252° |
| 2026-04-26 14:30 | 42.41348 | 45.69439 | 34128 ft | 403 kts | 256° |
| 2026-04-26 14:30 | 42.39963 | 45.60875 | 34118 ft | 402 kts | 258° |
| 2026-04-26 14:31 | 42.38851 | 45.53493 | 34113 ft | 402 kts | 258° |
| 2026-04-26 14:31 | 42.37738 | 45.46096 | 34107 ft | 402 kts | 259° |
| 2026-04-26 14:32 | 42.36627 | 45.38718 | 34092 ft | 402 kts | 258° |
| 2026-04-26 14:32 | 42.35507 | 45.31332 | 34082 ft | 402 kts | 258° |
| 2026-04-26 14:33 | 42.34390 | 45.23996 | 34074 ft | 401 kts | 258° |
| 2026-04-26 14:33 | 42.33264 | 45.16645 | 34066 ft | 402 kts | 258° |
| 2026-04-26 14:34 | 42.32135 | 45.09268 | 34071 ft | 402 kts | 258° |
| 2026-04-26 14:34 | 42.30997 | 45.01899 | 34067 ft | 402 kts | 258° |
| 2026-04-26 14:35 | 42.29853 | 44.94508 | 34055 ft | 401 kts | 258° |
| 2026-04-26 14:35 | 42.28708 | 44.87149 | 34052 ft | 401 kts | 258° |
| 2026-04-26 14:36 | 42.27568 | 44.79850 | 34054 ft | 401 kts | 258° |
| 2026-04-26 14:36 | 42.26414 | 44.72504 | 34059 ft | 400 kts | 257° |
| 2026-04-26 14:37 | 42.25253 | 44.65155 | 34059 ft | 401 kts | 257° |
| 2026-04-26 14:37 | 42.24095 | 44.57841 | 34049 ft | 401 kts | 257° |
| 2026-04-26 14:38 | 42.22929 | 44.50513 | 34042 ft | 401 kts | 257° |
| 2026-04-26 14:38 | 42.21758 | 44.43190 | 34034 ft | 401 kts | 257° |
| 2026-04-26 14:39 | 42.20580 | 44.35848 | 34032 ft | 400 kts | 257° |
| 2026-04-26 14:39 | 42.19402 | 44.28548 | 34032 ft | 399 kts | 257° |
| 2026-04-26 14:40 | 42.18226 | 44.21273 | 34033 ft | 399 kts | 257° |
| 2026-04-26 14:40 | 42.17043 | 44.13983 | 34030 ft | 399 kts | 256° |
| 2026-04-26 14:41 | 42.15857 | 44.06714 | 34025 ft | 399 kts | 256° |
| 2026-04-26 14:41 | 42.14662 | 43.99430 | 34025 ft | 398 kts | 257° |
| 2026-04-26 14:42 | 42.13473 | 43.92194 | 34022 ft | 399 kts | 257° |
| 2026-04-26 14:42 | 42.12270 | 43.84906 | 34021 ft | 399 kts | 256° |
| 2026-04-26 14:43 | 42.11071 | 43.77658 | 34018 ft | 400 kts | 256° |
| 2026-04-26 14:43 | 42.09855 | 43.70372 | 34020 ft | 400 kts | 256° |
| 2026-04-26 14:44 | 42.08514 | 43.63118 | 34020 ft | 399 kts | 252° |
| 2026-04-26 14:44 | 42.06910 | 43.56022 | 34017 ft | 399 kts | 252° |
| 2026-04-26 14:45 | 42.05289 | 43.48872 | 34026 ft | 399 kts | 252° |
| 2026-04-26 14:45 | 42.03677 | 43.41790 | 34016 ft | 398 kts | 252° |
| 2026-04-26 14:46 | 42.02055 | 43.34690 | 34011 ft | 398 kts | 252° |
| 2026-04-26 14:46 | 42.00431 | 43.27594 | 34004 ft | 398 kts | 251° |
| 2026-04-26 14:47 | 41.99080 | 43.21711 | 33999 ft | 397 kts | 251° |
| 2026-04-26 14:47 | 41.97174 | 43.13436 | 34004 ft | 397 kts | 251° |
| 2026-04-26 14:48 | 41.95552 | 43.06403 | 34002 ft | 397 kts | 251° |
| 2026-04-26 14:48 | 41.94188 | 43.00520 | 34010 ft | 398 kts | 251° |
| 2026-04-26 14:49 | 41.92266 | 42.92263 | 34013 ft | 398 kts | 251° |
| 2026-04-26 14:49 | 41.90612 | 42.85171 | 34038 ft | 399 kts | 251° |
| 2026-04-26 14:50 | 41.88916 | 42.78090 | 34036 ft | 400 kts | 251° |
| 2026-04-26 14:50 | 41.87481 | 42.72168 | 34040 ft | 401 kts | 251° |
| 2026-04-26 14:51 | 41.85764 | 42.65091 | 34040 ft | 401 kts | 251° |
| 2026-04-26 14:51 | 41.83748 | 42.56789 | 34038 ft | 403 kts | 251° |
| 2026-04-26 14:52 | 41.82016 | 42.49674 | 34043 ft | 403 kts | 251° |
| 2026-04-26 14:52 | 41.80284 | 42.42577 | 34043 ft | 404 kts | 251° |
| 2026-04-26 14:53 | 41.78529 | 42.35409 | 34044 ft | 406 kts | 250° |
| 2026-04-26 14:53 | 41.76761 | 42.28220 | 34039 ft | 407 kts | 250° |
| 2026-04-26 14:54 | 41.75300 | 42.22281 | 34032 ft | 408 kts | 250° |
| 2026-04-26 14:54 | 41.73228 | 42.13885 | 34034 ft | 408 kts | 250° |
| 2026-04-26 14:55 | 41.71435 | 42.06658 | 34030 ft | 410 kts | 250° |
| 2026-04-26 14:55 | 41.69640 | 41.99449 | 34023 ft | 409 kts | 250° |
| 2026-04-26 14:56 | 41.67854 | 41.92266 | 34001 ft | 409 kts | 250° |
| 2026-04-26 14:56 | 41.66055 | 41.85069 | 33973 ft | 410 kts | 250° |
| 2026-04-26 14:57 | 41.64249 | 41.77857 | 33951 ft | 410 kts | 250° |
| 2026-04-26 14:57 | 41.62448 | 41.70674 | 33941 ft | 410 kts | 250° |
| 2026-04-26 14:58 | 41.60624 | 41.63456 | 33939 ft | 410 kts | 249° |
| 2026-04-26 14:58 | 41.58890 | 41.57618 | 33944 ft | 409 kts | 246° |
| 2026-04-26 14:59 | 41.56673 | 41.50625 | 33941 ft | 410 kts | 246° |
| 2026-04-26 14:59 | 41.54458 | 41.43682 | 33940 ft | 410 kts | 245° |
| 2026-04-26 15:00 | 41.52184 | 41.36697 | 33944 ft | 411 kts | 245° |
| 2026-04-26 15:00 | 41.49916 | 41.29745 | 33948 ft | 410 kts | 245° |
| 2026-04-26 15:01 | 41.47647 | 41.22800 | 33955 ft | 410 kts | 245° |
| 2026-04-26 15:01 | 41.45741 | 41.16966 | 33964 ft | 410 kts | 245° |
| 2026-04-26 15:02 | 41.43087 | 41.08884 | 33964 ft | 409 kts | 245° |
| 2026-04-26 15:02 | 41.40801 | 41.01969 | 33963 ft | 410 kts | 244° |
| 2026-04-26 15:03 | 41.38510 | 40.95041 | 33964 ft | 409 kts | 244° |
| 2026-04-26 15:03 | 41.36224 | 40.88139 | 33966 ft | 410 kts | 244° |
| 2026-04-26 15:04 | 41.33935 | 40.81250 | 33964 ft | 408 kts | 244° |
| 2026-04-26 15:04 | 41.31632 | 40.74327 | 33969 ft | 410 kts | 244° |
| 2026-04-26 15:05 | 41.29325 | 40.67410 | 33963 ft | 411 kts | 244° |
| 2026-04-26 15:05 | 41.27019 | 40.60513 | 33968 ft | 410 kts | 244° |
| 2026-04-26 15:06 | 41.24699 | 40.53585 | 33955 ft | 411 kts | 244° |
| 2026-04-26 15:06 | 41.22378 | 40.46678 | 33960 ft | 411 kts | 244° |
| 2026-04-26 15:07 | 41.18875 | 40.36290 | 33946 ft | 414 kts | 244° |
| 2026-04-26 15:07 | 41.16528 | 40.29343 | 33936 ft | 415 kts | 244° |
| 2026-04-26 15:08 | 41.14168 | 40.22366 | 33941 ft | 415 kts | 243° |
| 2026-04-26 15:08 | 41.11806 | 40.15425 | 33931 ft | 416 kts | 243° |
| 2026-04-26 15:09 | 41.09423 | 40.08449 | 33934 ft | 415 kts | 243° |
| 2026-04-26 15:09 | 41.07041 | 40.01484 | 33934 ft | 416 kts | 243° |
| 2026-04-26 15:10 | 41.05451 | 39.96846 | 33935 ft | 416 kts | 243° |
| 2026-04-26 15:10 | 41.02266 | 39.87564 | 33927 ft | 417 kts | 243° |
| 2026-04-26 15:11 | 40.99880 | 39.80649 | 33912 ft | 417 kts | 243° |
| 2026-04-26 15:11 | 40.97683 | 39.74936 | 33910 ft | 417 kts | 240° |
| 2026-04-26 15:12 | 40.94562 | 39.67001 | 33937 ft | 418 kts | 240° |
| 2026-04-26 15:12 | 40.91879 | 39.60188 | 33948 ft | 419 kts | 240° |
| 2026-04-26 15:13 | 40.89197 | 39.53392 | 33965 ft | 419 kts | 241° |
| 2026-04-26 15:13 | 40.86504 | 39.46581 | 33987 ft | 419 kts | 241° |
| 2026-04-26 15:14 | 40.83810 | 39.39783 | 34002 ft | 419 kts | 240° |
| 2026-04-26 15:14 | 40.81107 | 39.32980 | 34017 ft | 419 kts | 240° |
| 2026-04-26 15:15 | 40.78407 | 39.26199 | 34036 ft | 419 kts | 240° |
| 2026-04-26 15:15 | 40.75699 | 39.19413 | 34046 ft | 419 kts | 240° |
| 2026-04-26 15:16 | 40.72990 | 39.12640 | 34043 ft | 420 kts | 240° |
| 2026-04-26 15:16 | 40.70726 | 39.06986 | 34049 ft | 420 kts | 240° |
| 2026-04-26 15:17 | 40.68455 | 39.01323 | 34052 ft | 420 kts | 240° |
| 2026-04-26 15:17 | 40.64827 | 38.92305 | 34063 ft | 422 kts | 240° |
| 2026-04-26 15:18 | 40.62068 | 38.85496 | 34059 ft | 422 kts | 240° |
| 2026-04-26 15:18 | 40.59303 | 38.78706 | 34068 ft | 423 kts | 240° |
| 2026-04-26 15:19 | 40.56522 | 38.71876 | 34079 ft | 423 kts | 240° |
| 2026-04-26 15:19 | 40.53754 | 38.65086 | 34078 ft | 422 kts | 240° |
| 2026-04-26 15:20 | 40.50978 | 38.58304 | 34081 ft | 424 kts | 240° |
| 2026-04-26 15:20 | 40.48121 | 38.51550 | 34086 ft | 424 kts | 239° |
| 2026-04-26 15:21 | 40.45242 | 38.44871 | 34073 ft | 424 kts | 239° |
| 2026-04-26 15:21 | 40.42328 | 38.38099 | 34081 ft | 425 kts | 239° |
| 2026-04-26 15:22 | 40.39928 | 38.32523 | 34073 ft | 426 kts | 239° |
| 2026-04-26 15:22 | 40.36570 | 38.24591 | 34083 ft | 428 kts | 240° |
| 2026-04-26 15:23 | 40.33829 | 38.17689 | 34091 ft | 429 kts | 240° |
| 2026-04-26 15:23 | 40.31009 | 38.10799 | 34096 ft | 429 kts | 239° |
| 2026-04-26 15:24 | 40.28127 | 38.04023 | 34097 ft | 429 kts | 239° |
| 2026-04-26 15:24 | 40.25699 | 37.98310 | 34086 ft | 429 kts | 239° |
| 2026-04-26 15:25 | 40.22814 | 37.91514 | 34082 ft | 430 kts | 239° |
| 2026-04-26 15:25 | 40.19438 | 37.83576 | 34101 ft | 430 kts | 239° |
| 2026-04-26 15:26 | 40.16603 | 37.76917 | 34099 ft | 430 kts | 239° |
| 2026-04-26 15:26 | 40.13689 | 37.70091 | 34090 ft | 430 kts | 239° |
| 2026-04-26 15:27 | 40.10775 | 37.63274 | 34091 ft | 431 kts | 239° |
| 2026-04-26 15:27 | 40.07860 | 37.56477 | 34096 ft | 432 kts | 239° |
| 2026-04-26 15:28 | 40.04926 | 37.49625 | 34100 ft | 432 kts | 239° |
| 2026-04-26 15:28 | 40.02500 | 37.43956 | 34083 ft | 433 kts | 239° |
| 2026-04-26 15:29 | 39.99558 | 37.37092 | 34087 ft | 433 kts | 239° |
| 2026-04-26 15:30 | 39.93681 | 37.23418 | 34084 ft | 434 kts | 238° |
| 2026-04-26 15:30 | 39.90259 | 37.15481 | 34081 ft | 433 kts | 238° |
| 2026-04-26 15:31 | 39.85821 | 37.05212 | 34060 ft | 434 kts | 238° |
| 2026-04-26 15:32 | 39.82517 | 36.97599 | 34060 ft | 435 kts | 238° |
| 2026-04-26 15:32 | 39.78119 | 36.88871 | 34049 ft | 433 kts | 231° |
| 2026-04-26 15:33 | 39.74250 | 36.82957 | 34049 ft | 432 kts | 225° |
| 2026-04-26 15:33 | 39.70140 | 36.77285 | 34059 ft | 433 kts | 225° |
| 2026-04-26 15:34 | 39.66689 | 36.72530 | 34068 ft | 432 kts | 225° |
| 2026-04-26 15:34 | 39.62567 | 36.66865 | 34076 ft | 433 kts | 225° |
| 2026-04-26 15:35 | 39.57777 | 36.60292 | 34090 ft | 433 kts | 225° |
| 2026-04-26 15:35 | 39.53645 | 36.54631 | 34100 ft | 433 kts | 226° |
| 2026-04-26 15:36 | 39.49502 | 36.48975 | 34090 ft | 433 kts | 225° |
| 2026-04-26 15:36 | 39.45370 | 36.43373 | 34091 ft | 432 kts | 225° |
| 2026-04-26 15:37 | 39.41929 | 36.38706 | 34087 ft | 432 kts | 225° |
| 2026-04-26 15:37 | 39.37080 | 36.32136 | 34085 ft | 432 kts | 225° |
| 2026-04-26 15:38 | 39.33637 | 36.27477 | 34082 ft | 432 kts | 225° |
| 2026-04-26 15:38 | 39.28794 | 36.20936 | 34079 ft | 431 kts | 225° |
| 2026-04-26 15:39 | 39.25361 | 36.16306 | 34074 ft | 431 kts | 225° |
| 2026-04-26 15:39 | 39.21923 | 36.11672 | 34065 ft | 431 kts | 225° |
| 2026-04-26 15:40 | 39.17067 | 36.05143 | 34064 ft | 431 kts | 225° |
| 2026-04-26 15:40 | 39.12884 | 35.99689 | 34064 ft | 430 kts | 223° |
| 2026-04-26 15:41 | 39.08567 | 35.94349 | 34066 ft | 430 kts | 223° |
| 2026-04-26 15:41 | 39.03545 | 35.88113 | 34071 ft | 430 kts | 223° |
| 2026-04-26 15:42 | 38.99976 | 35.83677 | 34071 ft | 430 kts | 223° |
| 2026-04-26 15:42 | 38.94973 | 35.77464 | 34069 ft | 431 kts | 223° |
| 2026-04-26 15:43 | 38.91413 | 35.72953 | 34070 ft | 431 kts | 224° |
| 2026-04-26 15:44 | 38.84409 | 35.63905 | 34061 ft | 432 kts | 224° |
| 2026-04-26 15:44 | 38.78045 | 35.55711 | 34047 ft | 433 kts | 224° |
| 2026-04-26 15:45 | 38.73197 | 35.49487 | 34037 ft | 433 kts | 224° |
| 2026-04-26 15:46 | 38.66222 | 35.40558 | 34047 ft | 435 kts | 224° |
| 2026-04-26 15:46 | 38.66075 | 35.40371 | 34047 ft | 435 kts | 224° |